sensor_id;sensor_type;location;lat;lon;timestamp;P1;durP1;ratioP1;P2;durP2;ratioP2
39264;SDS011;42646;51.910;7.724;2023-01-30T00:01:43;37.45;;;20.05;;
39264;SDS011;42646;51.910;7.724;2023-01-30T00:04:13;39.22;;;20.92;;
39264;SDS011;42646;51.910;7.724;2023-01-30T00:06:42;36.75;;;20.50;;
39264;SDS011;42646;51.910;7.724;2023-01-30T00:09:11;36.53;;;19.55;;
39264;SDS011;42646;51.910;7.724;2023-01-30T00:11:41;35.97;;;20.73;;
39264;SDS011;42646;51.910;7.724;2023-01-30T00:14:09;38.50;;;20.10;;
39264;SDS011;42646;51.910;7.724;2023-01-30T00:16:36;38.47;;;21.02;;
39264;SDS011;42646;51.910;7.724;2023-01-30T00:19:04;38.50;;;21.40;;
39264;SDS011;42646;51.910;7.724;2023-01-30T00:21:34;38.40;;;20.40;;
39264;SDS011;42646;51.910;7.724;2023-01-30T00:24:02;38.67;;;20.73;;
39264;SDS011;42646;51.910;7.724;2023-01-30T00:26:30;35.28;;;19.95;;
39264;SDS011;42646;51.910;7.724;2023-01-30T00:28:58;36.92;;;20.33;;
39264;SDS011;42646;51.910;7.724;2023-01-30T00:31:29;37.97;;;21.05;;
39264;SDS011;42646;51.910;7.724;2023-01-30T00:33:57;37.55;;;20.88;;
39264;SDS011;42646;51.910;7.724;2023-01-30T00:36:26;36.40;;;21.23;;
39264;SDS011;42646;51.910;7.724;2023-01-30T00:38:56;38.30;;;21.02;;
39264;SDS011;42646;51.910;7.724;2023-01-30T00:41:24;35.75;;;20.77;;
39264;SDS011;42646;51.910;7.724;2023-01-30T00:44:14;40.05;;;22.45;;
39264;SDS011;42646;51.910;7.724;2023-01-30T00:47:01;39.80;;;22.77;;
39264;SDS011;42646;51.910;7.724;2023-01-30T00:49:34;38.00;;;22.17;;
39264;SDS011;42646;51.910;7.724;2023-01-30T00:52:03;38.67;;;21.13;;
39264;SDS011;42646;51.910;7.724;2023-01-30T00:54:33;43.67;;;22.65;;
39264;SDS011;42646;51.910;7.724;2023-01-30T00:57:01;41.60;;;22.15;;
39264;SDS011;42646;51.910;7.724;2023-01-30T00:59:29;41.47;;;22.00;;
39264;SDS011;42646;51.910;7.724;2023-01-30T01:01:57;37.55;;;21.88;;
39264;SDS011;42646;51.910;7.724;2023-01-30T01:04:26;39.17;;;22.02;;
39264;SDS011;42646;51.910;7.724;2023-01-30T01:06:53;43.38;;;22.95;;
39264;SDS011;42646;51.910;7.724;2023-01-30T01:09:21;39.47;;;21.90;;
39264;SDS011;42646;51.910;7.724;2023-01-30T01:11:52;46.05;;;23.80;;
39264;SDS011;42646;51.910;7.724;2023-01-30T01:14:21;42.97;;;22.95;;
39264;SDS011;42646;51.910;7.724;2023-01-30T01:16:49;45.38;;;23.75;;
39264;SDS011;42646;51.910;7.724;2023-01-30T01:19:17;44.60;;;24.10;;
39264;SDS011;42646;51.910;7.724;2023-01-30T01:21:45;38.45;;;21.90;;
39264;SDS011;42646;51.910;7.724;2023-01-30T01:24:13;42.83;;;23.58;;
39264;SDS011;42646;51.910;7.724;2023-01-30T01:26:43;43.40;;;23.13;;
39264;SDS011;42646;51.910;7.724;2023-01-30T01:29:12;44.97;;;23.92;;
39264;SDS011;42646;51.910;7.724;2023-01-30T01:31:41;44.72;;;23.85;;
39264;SDS011;42646;51.910;7.724;2023-01-30T01:34:11;40.80;;;22.25;;
39264;SDS011;42646;51.910;7.724;2023-01-30T01:36:42;43.38;;;23.98;;
39264;SDS011;42646;51.910;7.724;2023-01-30T01:39:21;39.97;;;22.75;;
39264;SDS011;42646;51.910;7.724;2023-01-30T01:41:49;42.58;;;23.05;;
39264;SDS011;42646;51.910;7.724;2023-01-30T01:44:17;41.10;;;23.20;;
39264;SDS011;42646;51.910;7.724;2023-01-30T01:46:47;42.28;;;22.55;;
39264;SDS011;42646;51.910;7.724;2023-01-30T01:49:19;41.65;;;23.58;;
39264;SDS011;42646;51.910;7.724;2023-01-30T01:51:52;39.60;;;22.70;;
39264;SDS011;42646;51.910;7.724;2023-01-30T01:54:24;38.70;;;22.95;;
39264;SDS011;42646;51.910;7.724;2023-01-30T01:56:56;40.15;;;22.50;;
39264;SDS011;42646;51.910;7.724;2023-01-30T01:59:31;36.95;;;22.27;;
39264;SDS011;42646;51.910;7.724;2023-01-30T02:02:04;37.67;;;22.40;;
39264;SDS011;42646;51.910;7.724;2023-01-30T02:04:35;42.47;;;23.42;;
39264;SDS011;42646;51.910;7.724;2023-01-30T02:07:24;40.45;;;23.38;;
39264;SDS011;42646;51.910;7.724;2023-01-30T02:09:53;43.10;;;22.38;;
39264;SDS011;42646;51.910;7.724;2023-01-30T02:12:21;42.80;;;24.70;;
39264;SDS011;42646;51.910;7.724;2023-01-30T02:14:53;41.38;;;23.52;;
39264;SDS011;42646;51.910;7.724;2023-01-30T02:17:23;39.92;;;23.48;;
39264;SDS011;42646;51.910;7.724;2023-01-30T02:19:54;36.40;;;22.03;;
39264;SDS011;42646;51.910;7.724;2023-01-30T02:22:44;41.83;;;24.65;;
39264;SDS011;42646;51.910;7.724;2023-01-30T02:25:48;43.50;;;23.50;;
39264;SDS011;42646;51.910;7.724;2023-01-30T02:28:39;42.08;;;24.08;;
39264;SDS011;42646;51.910;7.724;2023-01-30T02:31:25;42.38;;;23.70;;
39264;SDS011;42646;51.910;7.724;2023-01-30T02:34:07;41.42;;;23.73;;
39264;SDS011;42646;51.910;7.724;2023-01-30T02:36:50;40.78;;;23.77;;
39264;SDS011;42646;51.910;7.724;2023-01-30T02:39:35;44.00;;;25.33;;
39264;SDS011;42646;51.910;7.724;2023-01-30T02:42:13;45.10;;;25.08;;
39264;SDS011;42646;51.910;7.724;2023-01-30T02:44:51;42.30;;;25.42;;
39264;SDS011;42646;51.910;7.724;2023-01-30T02:47:29;41.83;;;25.02;;
39264;SDS011;42646;51.910;7.724;2023-01-30T02:50:01;47.85;;;25.80;;
39264;SDS011;42646;51.910;7.724;2023-01-30T02:52:34;43.90;;;25.58;;
39264;SDS011;42646;51.910;7.724;2023-01-30T02:55:05;45.55;;;25.42;;
39264;SDS011;42646;51.910;7.724;2023-01-30T02:57:38;48.20;;;26.45;;
39264;SDS011;42646;51.910;7.724;2023-01-30T03:00:07;45.55;;;26.33;;
39264;SDS011;42646;51.910;7.724;2023-01-30T03:03:12;43.60;;;24.67;;
39264;SDS011;42646;51.910;7.724;2023-01-30T03:05:59;43.80;;;25.25;;
39264;SDS011;42646;51.910;7.724;2023-01-30T03:08:45;42.95;;;25.05;;
39264;SDS011;42646;51.910;7.724;2023-01-30T03:11:26;37.53;;;22.95;;
39264;SDS011;42646;51.910;7.724;2023-01-30T03:14:05;37.50;;;23.73;;
39264;SDS011;42646;51.910;7.724;2023-01-30T03:16:38;39.58;;;23.73;;
39264;SDS011;42646;51.910;7.724;2023-01-30T03:19:10;33.95;;;21.98;;
39264;SDS011;42646;51.910;7.724;2023-01-30T03:21:40;39.13;;;22.58;;
39264;SDS011;42646;51.910;7.724;2023-01-30T03:24:10;38.63;;;22.67;;
39264;SDS011;42646;51.910;7.724;2023-01-30T03:26:40;38.70;;;21.88;;
39264;SDS011;42646;51.910;7.724;2023-01-30T03:29:13;35.20;;;21.27;;
39264;SDS011;42646;51.910;7.724;2023-01-30T03:31:42;35.38;;;21.48;;
39264;SDS011;42646;51.910;7.724;2023-01-30T03:34:11;34.92;;;20.83;;
39264;SDS011;42646;51.910;7.724;2023-01-30T03:36:45;33.38;;;20.65;;
39264;SDS011;42646;51.910;7.724;2023-01-30T03:39:14;36.88;;;20.83;;
39264;SDS011;42646;51.910;7.724;2023-01-30T03:41:42;31.02;;;19.15;;
39264;SDS011;42646;51.910;7.724;2023-01-30T03:44:11;33.97;;;20.13;;
39264;SDS011;42646;51.910;7.724;2023-01-30T03:46:40;31.10;;;19.73;;
39264;SDS011;42646;51.910;7.724;2023-01-30T03:49:08;32.10;;;19.80;;
39264;SDS011;42646;51.910;7.724;2023-01-30T03:51:37;29.80;;;18.95;;
39264;SDS011;42646;51.910;7.724;2023-01-30T03:54:05;29.70;;;17.80;;
39264;SDS011;42646;51.910;7.724;2023-01-30T03:56:33;35.05;;;18.85;;
39264;SDS011;42646;51.910;7.724;2023-01-30T03:59:01;30.95;;;18.73;;
39264;SDS011;42646;51.910;7.724;2023-01-30T04:01:37;30.15;;;18.42;;
39264;SDS011;42646;51.910;7.724;2023-01-30T04:04:05;29.42;;;18.58;;
39264;SDS011;42646;51.910;7.724;2023-01-30T04:06:32;26.55;;;17.80;;
39264;SDS011;42646;51.910;7.724;2023-01-30T04:09:04;25.92;;;17.92;;
39264;SDS011;42646;51.910;7.724;2023-01-30T04:11:45;26.48;;;18.20;;
39264;SDS011;42646;51.910;7.724;2023-01-30T04:14:13;27.80;;;18.10;;
39264;SDS011;42646;51.910;7.724;2023-01-30T04:17:04;27.80;;;17.85;;
39264;SDS011;42646;51.910;7.724;2023-01-30T04:19:49;26.52;;;17.42;;
39264;SDS011;42646;51.910;7.724;2023-01-30T04:22:17;26.42;;;17.60;;
39264;SDS011;42646;51.910;7.724;2023-01-30T04:24:48;26.63;;;16.15;;
39264;SDS011;42646;51.910;7.724;2023-01-30T04:27:15;23.77;;;16.85;;
39264;SDS011;42646;51.910;7.724;2023-01-30T04:30:04;26.10;;;16.60;;
39264;SDS011;42646;51.910;7.724;2023-01-30T04:32:36;24.45;;;16.08;;
39264;SDS011;42646;51.910;7.724;2023-01-30T04:35:04;25.00;;;15.55;;
39264;SDS011;42646;51.910;7.724;2023-01-30T04:37:33;23.73;;;15.57;;
39264;SDS011;42646;51.910;7.724;2023-01-30T04:40:03;23.58;;;16.40;;
39264;SDS011;42646;51.910;7.724;2023-01-30T04:42:33;21.80;;;14.88;;
39264;SDS011;42646;51.910;7.724;2023-01-30T04:45:20;22.52;;;14.70;;
39264;SDS011;42646;51.910;7.724;2023-01-30T04:47:49;21.48;;;15.05;;
39264;SDS011;42646;51.910;7.724;2023-01-30T04:50:17;20.73;;;14.32;;
39264;SDS011;42646;51.910;7.724;2023-01-30T04:52:45;20.05;;;13.23;;
39264;SDS011;42646;51.910;7.724;2023-01-30T04:55:15;19.42;;;12.85;;
39264;SDS011;42646;51.910;7.724;2023-01-30T04:57:44;17.63;;;12.40;;
39264;SDS011;42646;51.910;7.724;2023-01-30T05:00:36;19.88;;;12.82;;
39264;SDS011;42646;51.910;7.724;2023-01-30T05:03:04;17.33;;;12.32;;
39264;SDS011;42646;51.910;7.724;2023-01-30T05:05:32;17.17;;;12.70;;
39264;SDS011;42646;51.910;7.724;2023-01-30T05:08:00;17.33;;;11.88;;
39264;SDS011;42646;51.910;7.724;2023-01-30T05:10:30;17.35;;;12.07;;
39264;SDS011;42646;51.910;7.724;2023-01-30T05:13:00;15.40;;;11.10;;
39264;SDS011;42646;51.910;7.724;2023-01-30T05:15:28;17.58;;;11.82;;
39264;SDS011;42646;51.910;7.724;2023-01-30T05:18:02;17.85;;;11.57;;
39264;SDS011;42646;51.910;7.724;2023-01-30T05:22:58;15.25;;;11.25;;
39264;SDS011;42646;51.910;7.724;2023-01-30T05:25:52;15.98;;;10.82;;
39264;SDS011;42646;51.910;7.724;2023-01-30T05:28:24;16.50;;;11.02;;
39264;SDS011;42646;51.910;7.724;2023-01-30T05:30:59;17.17;;;11.95;;
39264;SDS011;42646;51.910;7.724;2023-01-30T05:33:27;17.15;;;12.02;;
39264;SDS011;42646;51.910;7.724;2023-01-30T05:35:55;19.15;;;12.15;;
39264;SDS011;42646;51.910;7.724;2023-01-30T05:38:25;16.95;;;11.40;;
39264;SDS011;42646;51.910;7.724;2023-01-30T05:40:58;16.30;;;11.70;;
39264;SDS011;42646;51.910;7.724;2023-01-30T05:43:28;15.25;;;10.65;;
39264;SDS011;42646;51.910;7.724;2023-01-30T05:45:57;14.93;;;9.98;;
39264;SDS011;42646;51.910;7.724;2023-01-30T05:48:27;13.43;;;9.70;;
39264;SDS011;42646;51.910;7.724;2023-01-30T05:50:55;13.68;;;10.30;;
39264;SDS011;42646;51.910;7.724;2023-01-30T05:53:26;12.23;;;9.18;;
39264;SDS011;42646;51.910;7.724;2023-01-30T05:55:56;14.65;;;10.20;;
39264;SDS011;42646;51.910;7.724;2023-01-30T05:58:30;15.43;;;11.32;;
39264;SDS011;42646;51.910;7.724;2023-01-30T06:00:58;14.90;;;10.15;;
39264;SDS011;42646;51.910;7.724;2023-01-30T06:03:26;13.88;;;10.38;;
39264;SDS011;42646;51.910;7.724;2023-01-30T06:06:20;12.90;;;9.73;;
39264;SDS011;42646;51.910;7.724;2023-01-30T06:09:13;13.65;;;9.50;;
39264;SDS011;42646;51.910;7.724;2023-01-30T06:11:44;12.45;;;9.45;;
39264;SDS011;42646;51.910;7.724;2023-01-30T06:14:11;13.38;;;10.38;;
39264;SDS011;42646;51.910;7.724;2023-01-30T06:16:41;12.38;;;9.50;;
39264;SDS011;42646;51.910;7.724;2023-01-30T06:19:09;13.85;;;10.20;;
39264;SDS011;42646;51.910;7.724;2023-01-30T06:21:37;13.43;;;10.20;;
39264;SDS011;42646;51.910;7.724;2023-01-30T06:24:04;13.60;;;10.07;;
39264;SDS011;42646;51.910;7.724;2023-01-30T06:26:36;14.23;;;10.07;;
39264;SDS011;42646;51.910;7.724;2023-01-30T06:29:05;13.98;;;10.05;;
39264;SDS011;42646;51.910;7.724;2023-01-30T06:31:33;12.88;;;9.57;;
39264;SDS011;42646;51.910;7.724;2023-01-30T06:34:01;13.20;;;9.52;;
39264;SDS011;42646;51.910;7.724;2023-01-30T06:36:31;12.63;;;9.25;;
39264;SDS011;42646;51.910;7.724;2023-01-30T06:38:59;13.23;;;9.88;;
39264;SDS011;42646;51.910;7.724;2023-01-30T06:41:26;11.13;;;7.43;;
39264;SDS011;42646;51.910;7.724;2023-01-30T06:43:55;8.05;;;5.05;;
39264;SDS011;42646;51.910;7.724;2023-01-30T06:46:24;9.05;;;4.30;;
39264;SDS011;42646;51.910;7.724;2023-01-30T06:48:55;6.30;;;3.75;;
39264;SDS011;42646;51.910;7.724;2023-01-30T06:51:23;6.55;;;3.30;;
39264;SDS011;42646;51.910;7.724;2023-01-30T06:53:53;6.80;;;2.85;;
39264;SDS011;42646;51.910;7.724;2023-01-30T06:56:22;7.13;;;2.35;;
39264;SDS011;42646;51.910;7.724;2023-01-30T06:58:50;7.15;;;2.17;;
39264;SDS011;42646;51.910;7.724;2023-01-30T07:01:18;10.23;;;2.78;;
39264;SDS011;42646;51.910;7.724;2023-01-30T07:03:47;8.63;;;2.17;;
39264;SDS011;42646;51.910;7.724;2023-01-30T07:06:15;6.13;;;1.80;;
39264;SDS011;42646;51.910;7.724;2023-01-30T07:08:44;10.50;;;1.98;;
39264;SDS011;42646;51.910;7.724;2023-01-30T07:11:12;12.38;;;2.08;;
39264;SDS011;42646;51.910;7.724;2023-01-30T07:13:40;10.65;;;2.50;;
39264;SDS011;42646;51.910;7.724;2023-01-30T07:16:08;8.20;;;1.95;;
39264;SDS011;42646;51.910;7.724;2023-01-30T07:18:35;9.02;;;2.28;;
39264;SDS011;42646;51.910;7.724;2023-01-30T07:21:06;10.80;;;2.35;;
39264;SDS011;42646;51.910;7.724;2023-01-30T07:23:33;9.38;;;2.20;;
39264;SDS011;42646;51.910;7.724;2023-01-30T07:26:02;14.75;;;2.60;;
39264;SDS011;42646;51.910;7.724;2023-01-30T07:28:30;10.88;;;2.60;;
39264;SDS011;42646;51.910;7.724;2023-01-30T07:30:59;11.38;;;3.70;;
39264;SDS011;42646;51.910;7.724;2023-01-30T07:33:27;9.68;;;2.20;;
39264;SDS011;42646;51.910;7.724;2023-01-30T07:35:58;11.70;;;2.70;;
39264;SDS011;42646;51.910;7.724;2023-01-30T07:38:28;6.95;;;2.30;;
39264;SDS011;42646;51.910;7.724;2023-01-30T07:40:56;12.27;;;2.50;;
39264;SDS011;42646;51.910;7.724;2023-01-30T07:43:25;12.95;;;2.78;;
39264;SDS011;42646;51.910;7.724;2023-01-30T07:45:53;12.93;;;2.88;;
39264;SDS011;42646;51.910;7.724;2023-01-30T07:48:45;12.82;;;3.05;;
39264;SDS011;42646;51.910;7.724;2023-01-30T07:51:14;10.07;;;2.70;;
39264;SDS011;42646;51.910;7.724;2023-01-30T07:53:43;9.13;;;2.58;;
39264;SDS011;42646;51.910;7.724;2023-01-30T07:56:11;9.40;;;3.10;;
39264;SDS011;42646;51.910;7.724;2023-01-30T07:58:43;10.05;;;2.40;;
39264;SDS011;42646;51.910;7.724;2023-01-30T08:01:11;14.68;;;3.75;;
39264;SDS011;42646;51.910;7.724;2023-01-30T08:03:40;9.85;;;3.00;;
39264;SDS011;42646;51.910;7.724;2023-01-30T08:06:09;10.30;;;2.85;;
39264;SDS011;42646;51.910;7.724;2023-01-30T08:08:39;12.02;;;3.13;;
39264;SDS011;42646;51.910;7.724;2023-01-30T08:11:08;11.88;;;3.33;;
39264;SDS011;42646;51.910;7.724;2023-01-30T08:13:37;16.63;;;2.85;;
39264;SDS011;42646;51.910;7.724;2023-01-30T08:16:05;14.25;;;3.90;;
39264;SDS011;42646;51.910;7.724;2023-01-30T08:18:35;11.43;;;2.83;;
39264;SDS011;42646;51.910;7.724;2023-01-30T08:21:04;9.38;;;2.63;;
39264;SDS011;42646;51.910;7.724;2023-01-30T08:23:32;8.27;;;2.38;;
39264;SDS011;42646;51.910;7.724;2023-01-30T08:26:01;15.65;;;3.10;;
39264;SDS011;42646;51.910;7.724;2023-01-30T08:28:33;16.15;;;2.53;;
39264;SDS011;42646;51.910;7.724;2023-01-30T08:31:01;19.85;;;4.05;;
39264;SDS011;42646;51.910;7.724;2023-01-30T08:33:29;17.77;;;2.92;;
39264;SDS011;42646;51.910;7.724;2023-01-30T08:35:57;13.98;;;3.15;;
39264;SDS011;42646;51.910;7.724;2023-01-30T08:38:32;14.30;;;2.80;;
39264;SDS011;42646;51.910;7.724;2023-01-30T08:41:02;16.35;;;3.80;;
39264;SDS011;42646;51.910;7.724;2023-01-30T08:43:38;16.35;;;3.10;;
39264;SDS011;42646;51.910;7.724;2023-01-30T08:46:05;15.18;;;3.10;;
39264;SDS011;42646;51.910;7.724;2023-01-30T08:48:34;12.38;;;2.88;;
39264;SDS011;42646;51.910;7.724;2023-01-30T08:51:15;14.27;;;3.25;;
39264;SDS011;42646;51.910;7.724;2023-01-30T08:53:45;13.50;;;2.80;;
39264;SDS011;42646;51.910;7.724;2023-01-30T08:56:14;13.00;;;4.15;;
39264;SDS011;42646;51.910;7.724;2023-01-30T08:58:43;14.07;;;2.40;;
39264;SDS011;42646;51.910;7.724;2023-01-30T09:01:12;17.85;;;2.95;;
39264;SDS011;42646;51.910;7.724;2023-01-30T09:03:40;17.75;;;3.05;;
39264;SDS011;42646;51.910;7.724;2023-01-30T09:06:33;18.27;;;3.00;;
39264;SDS011;42646;51.910;7.724;2023-01-30T09:09:02;18.83;;;2.95;;
39264;SDS011;42646;51.910;7.724;2023-01-30T09:11:29;14.70;;;2.55;;
39264;SDS011;42646;51.910;7.724;2023-01-30T09:13:59;13.25;;;2.38;;
39264;SDS011;42646;51.910;7.724;2023-01-30T09:19:21;15.20;;;3.10;;
39264;SDS011;42646;51.910;7.724;2023-01-30T09:21:50;13.68;;;2.45;;
39264;SDS011;42646;51.910;7.724;2023-01-30T09:24:18;15.07;;;3.13;;
39264;SDS011;42646;51.910;7.724;2023-01-30T09:26:52;17.38;;;2.95;;
39264;SDS011;42646;51.910;7.724;2023-01-30T09:29:24;14.00;;;2.80;;
39264;SDS011;42646;51.910;7.724;2023-01-30T09:31:52;18.52;;;3.83;;
39264;SDS011;42646;51.910;7.724;2023-01-30T09:34:21;19.90;;;4.07;;
39264;SDS011;42646;51.910;7.724;2023-01-30T09:36:52;19.70;;;3.90;;
39264;SDS011;42646;51.910;7.724;2023-01-30T09:39:22;16.50;;;3.15;;
39264;SDS011;42646;51.910;7.724;2023-01-30T09:41:55;14.40;;;2.90;;
39264;SDS011;42646;51.910;7.724;2023-01-30T09:47:29;16.80;;;3.10;;
39264;SDS011;42646;51.910;7.724;2023-01-30T09:50:10;19.88;;;2.90;;
39264;SDS011;42646;51.910;7.724;2023-01-30T09:53:11;16.45;;;3.40;;
39264;SDS011;42646;51.910;7.724;2023-01-30T09:58:42;17.67;;;4.20;;
39264;SDS011;42646;51.910;7.724;2023-01-30T10:01:17;18.17;;;2.95;;
39264;SDS011;42646;51.910;7.724;2023-01-30T10:04:21;15.10;;;3.03;;
39264;SDS011;42646;51.910;7.724;2023-01-30T10:06:55;16.45;;;3.72;;
39264;SDS011;42646;51.910;7.724;2023-01-30T10:09:30;15.88;;;3.33;;
39264;SDS011;42646;51.910;7.724;2023-01-30T10:12:14;13.93;;;3.72;;
39264;SDS011;42646;51.910;7.724;2023-01-30T10:15:01;19.15;;;3.33;;
39264;SDS011;42646;51.910;7.724;2023-01-30T10:17:52;16.17;;;2.83;;
39264;SDS011;42646;51.910;7.724;2023-01-30T10:20:37;14.07;;;2.88;;
39264;SDS011;42646;51.910;7.724;2023-01-30T10:23:18;16.40;;;3.93;;
39264;SDS011;42646;51.910;7.724;2023-01-30T10:25:54;14.63;;;2.85;;
39264;SDS011;42646;51.910;7.724;2023-01-30T10:28:30;17.52;;;3.10;;
39264;SDS011;42646;51.910;7.724;2023-01-30T10:31:03;15.38;;;2.67;;
39264;SDS011;42646;51.910;7.724;2023-01-30T10:33:36;17.17;;;3.53;;
39264;SDS011;42646;51.910;7.724;2023-01-30T10:36:11;18.73;;;3.42;;
39264;SDS011;42646;51.910;7.724;2023-01-30T10:38:43;14.32;;;2.55;;
39264;SDS011;42646;51.910;7.724;2023-01-30T10:41:19;16.48;;;3.00;;
39264;SDS011;42646;51.910;7.724;2023-01-30T10:43:56;17.13;;;2.95;;
39264;SDS011;42646;51.910;7.724;2023-01-30T10:46:32;18.60;;;2.88;;
39264;SDS011;42646;51.910;7.724;2023-01-30T10:49:17;18.33;;;2.88;;
39264;SDS011;42646;51.910;7.724;2023-01-30T10:51:53;14.40;;;2.97;;
39264;SDS011;42646;51.910;7.724;2023-01-30T10:54:31;12.90;;;2.70;;
39264;SDS011;42646;51.910;7.724;2023-01-30T10:57:06;18.17;;;3.63;;
39264;SDS011;42646;51.910;7.724;2023-01-30T10:59:47;18.70;;;3.30;;
39264;SDS011;42646;51.910;7.724;2023-01-30T11:02:23;16.05;;;3.83;;
39264;SDS011;42646;51.910;7.724;2023-01-30T11:04:57;19.08;;;3.35;;
39264;SDS011;42646;51.910;7.724;2023-01-30T11:07:26;14.20;;;2.75;;
39264;SDS011;42646;51.910;7.724;2023-01-30T11:09:58;16.15;;;2.38;;
39264;SDS011;42646;51.910;7.724;2023-01-30T11:12:26;13.48;;;2.70;;
39264;SDS011;42646;51.910;7.724;2023-01-30T11:14:57;22.58;;;3.40;;
39264;SDS011;42646;51.910;7.724;2023-01-30T11:17:30;11.65;;;2.75;;
39264;SDS011;42646;51.910;7.724;2023-01-30T11:20:06;15.65;;;2.80;;
39264;SDS011;42646;51.910;7.724;2023-01-30T11:22:44;13.23;;;3.03;;
39264;SDS011;42646;51.910;7.724;2023-01-30T11:25:14;20.02;;;2.90;;
39264;SDS011;42646;51.910;7.724;2023-01-30T11:27:51;14.02;;;2.78;;
39264;SDS011;42646;51.910;7.724;2023-01-30T11:30:26;14.90;;;3.38;;
39264;SDS011;42646;51.910;7.724;2023-01-30T11:33:05;16.83;;;2.83;;
39264;SDS011;42646;51.910;7.724;2023-01-30T11:38:24;20.65;;;3.88;;
39264;SDS011;42646;51.910;7.724;2023-01-30T11:41:04;16.30;;;3.10;;
39264;SDS011;42646;51.910;7.724;2023-01-30T11:43:42;14.45;;;2.65;;
39264;SDS011;42646;51.910;7.724;2023-01-30T11:46:12;16.33;;;2.88;;
39264;SDS011;42646;51.910;7.724;2023-01-30T11:48:43;12.03;;;3.10;;
39264;SDS011;42646;51.910;7.724;2023-01-30T11:51:41;14.02;;;2.63;;
39264;SDS011;42646;51.910;7.724;2023-01-30T11:54:13;15.50;;;2.90;;
39264;SDS011;42646;51.910;7.724;2023-01-30T11:56:47;14.57;;;2.70;;
39264;SDS011;42646;51.910;7.724;2023-01-30T11:59:22;12.50;;;3.10;;
39264;SDS011;42646;51.910;7.724;2023-01-30T12:02:00;12.43;;;2.35;;
39264;SDS011;42646;51.910;7.724;2023-01-30T12:04:33;19.65;;;3.25;;
39264;SDS011;42646;51.910;7.724;2023-01-30T12:07:07;10.75;;;2.70;;
39264;SDS011;42646;51.910;7.724;2023-01-30T12:09:44;14.65;;;2.83;;
39264;SDS011;42646;51.910;7.724;2023-01-30T12:12:27;16.87;;;2.90;;
39264;SDS011;42646;51.910;7.724;2023-01-30T12:15:16;11.25;;;2.55;;
39264;SDS011;42646;51.910;7.724;2023-01-30T12:17:55;13.60;;;2.90;;
39264;SDS011;42646;51.910;7.724;2023-01-30T12:20:38;11.27;;;2.20;;
39264;SDS011;42646;51.910;7.724;2023-01-30T12:23:14;13.48;;;2.60;;
39264;SDS011;42646;51.910;7.724;2023-01-30T12:25:47;16.48;;;2.55;;
39264;SDS011;42646;51.910;7.724;2023-01-30T12:28:29;15.45;;;2.65;;
39264;SDS011;42646;51.910;7.724;2023-01-30T12:31:04;15.50;;;3.35;;
39264;SDS011;42646;51.910;7.724;2023-01-30T12:33:38;14.57;;;2.80;;
39264;SDS011;42646;51.910;7.724;2023-01-30T12:36:08;15.02;;;2.85;;
39264;SDS011;42646;51.910;7.724;2023-01-30T12:39:03;17.92;;;3.55;;
39264;SDS011;42646;51.910;7.724;2023-01-30T12:41:42;14.13;;;2.90;;
39264;SDS011;42646;51.910;7.724;2023-01-30T12:44:31;12.98;;;2.75;;
39264;SDS011;42646;51.910;7.724;2023-01-30T12:47:28;13.32;;;2.92;;
39264;SDS011;42646;51.910;7.724;2023-01-30T12:50:23;15.30;;;3.03;;
39264;SDS011;42646;51.910;7.724;2023-01-30T12:56:14;13.88;;;2.65;;
39264;SDS011;42646;51.910;7.724;2023-01-30T12:58:57;13.15;;;3.05;;
39264;SDS011;42646;51.910;7.724;2023-01-30T13:01:32;16.45;;;2.70;;
39264;SDS011;42646;51.910;7.724;2023-01-30T13:04:13;16.10;;;3.42;;
39264;SDS011;42646;51.910;7.724;2023-01-30T13:06:53;12.68;;;2.55;;
39264;SDS011;42646;51.910;7.724;2023-01-30T13:09:34;18.67;;;2.88;;
39264;SDS011;42646;51.910;7.724;2023-01-30T13:12:08;13.85;;;3.35;;
39264;SDS011;42646;51.910;7.724;2023-01-30T13:14:45;12.82;;;2.30;;
39264;SDS011;42646;51.910;7.724;2023-01-30T13:17:25;11.82;;;2.53;;
39264;SDS011;42646;51.910;7.724;2023-01-30T13:20:13;14.48;;;2.70;;
39264;SDS011;42646;51.910;7.724;2023-01-30T13:22:51;16.33;;;3.40;;
39264;SDS011;42646;51.910;7.724;2023-01-30T13:25:24;14.85;;;3.47;;
39264;SDS011;42646;51.910;7.724;2023-01-30T13:28:02;17.17;;;2.90;;
39264;SDS011;42646;51.910;7.724;2023-01-30T13:30:36;16.45;;;3.10;;
39264;SDS011;42646;51.910;7.724;2023-01-30T13:33:09;14.18;;;3.05;;
39264;SDS011;42646;51.910;7.724;2023-01-30T13:35:41;14.75;;;3.40;;
39264;SDS011;42646;51.910;7.724;2023-01-30T13:40:44;13.50;;;2.97;;
39264;SDS011;42646;51.910;7.724;2023-01-30T13:43:18;13.93;;;3.13;;
39264;SDS011;42646;51.910;7.724;2023-01-30T13:45:49;19.10;;;4.05;;
39264;SDS011;42646;51.910;7.724;2023-01-30T13:48:24;17.33;;;3.00;;
39264;SDS011;42646;51.910;7.724;2023-01-30T13:51:17;21.52;;;3.33;;
39264;SDS011;42646;51.910;7.724;2023-01-30T13:53:53;22.98;;;3.67;;
39264;SDS011;42646;51.910;7.724;2023-01-30T13:56:29;15.20;;;2.95;;
39264;SDS011;42646;51.910;7.724;2023-01-30T13:59:13;18.13;;;3.60;;
39264;SDS011;42646;51.910;7.724;2023-01-30T14:02:15;15.73;;;3.58;;
39264;SDS011;42646;51.910;7.724;2023-01-30T14:04:49;16.50;;;3.10;;
39264;SDS011;42646;51.910;7.724;2023-01-30T14:07:25;12.50;;;2.53;;
39264;SDS011;42646;51.910;7.724;2023-01-30T14:10:10;7.65;;;2.03;;
39264;SDS011;42646;51.910;7.724;2023-01-30T14:12:43;7.20;;;2.03;;
39264;SDS011;42646;51.910;7.724;2023-01-30T14:17:58;13.77;;;2.97;;
39264;SDS011;42646;51.910;7.724;2023-01-30T14:20:31;13.75;;;2.70;;
39264;SDS011;42646;51.910;7.724;2023-01-30T14:23:05;9.98;;;2.40;;
39264;SDS011;42646;51.910;7.724;2023-01-30T14:25:49;17.60;;;3.00;;
39264;SDS011;42646;51.910;7.724;2023-01-30T14:28:37;11.70;;;2.78;;
39264;SDS011;42646;51.910;7.724;2023-01-30T14:31:13;13.35;;;2.67;;
39264;SDS011;42646;51.910;7.724;2023-01-30T14:34:39;11.77;;;2.60;;
39264;SDS011;42646;51.910;7.724;2023-01-30T14:40:25;10.73;;;2.20;;
39264;SDS011;42646;51.910;7.724;2023-01-30T14:49:25;13.90;;;2.38;;
39264;SDS011;42646;51.910;7.724;2023-01-30T14:51:56;12.05;;;2.25;;
39264;SDS011;42646;51.910;7.724;2023-01-30T14:54:25;17.48;;;3.17;;
39264;SDS011;42646;51.910;7.724;2023-01-30T14:57:14;10.75;;;2.92;;
39264;SDS011;42646;51.910;7.724;2023-01-30T14:59:47;13.23;;;2.80;;
39264;SDS011;42646;51.910;7.724;2023-01-30T15:02:40;14.15;;;2.45;;
39264;SDS011;42646;51.910;7.724;2023-01-30T15:05:17;13.48;;;2.88;;
39264;SDS011;42646;51.910;7.724;2023-01-30T15:07:52;18.20;;;2.88;;
39264;SDS011;42646;51.910;7.724;2023-01-30T15:13:43;16.02;;;3.40;;
39264;SDS011;42646;51.910;7.724;2023-01-30T15:16:36;11.68;;;2.60;;
39264;SDS011;42646;51.910;7.724;2023-01-30T15:19:18;13.73;;;3.08;;
39264;SDS011;42646;51.910;7.724;2023-01-30T15:22:03;15.90;;;3.33;;
39264;SDS011;42646;51.910;7.724;2023-01-30T15:27:37;15.43;;;3.53;;
39264;SDS011;42646;51.910;7.724;2023-01-30T15:30:20;15.93;;;2.92;;
39264;SDS011;42646;51.910;7.724;2023-01-30T15:33:09;17.13;;;3.92;;
39264;SDS011;42646;51.910;7.724;2023-01-30T15:35:55;15.73;;;3.10;;
39264;SDS011;42646;51.910;7.724;2023-01-30T15:38:26;17.63;;;3.17;;
39264;SDS011;42646;51.910;7.724;2023-01-30T15:46:20;13.02;;;3.25;;
39264;SDS011;42646;51.910;7.724;2023-01-30T15:49:05;18.60;;;3.15;;
39264;SDS011;42646;51.910;7.724;2023-01-30T15:51:46;15.23;;;2.92;;
39264;SDS011;42646;51.910;7.724;2023-01-30T15:54:17;16.73;;;3.20;;
39264;SDS011;42646;51.910;7.724;2023-01-30T15:56:49;14.32;;;2.55;;